sensor_id;sensor_type;location;lat;lon;timestamp;pressure;altitude;pressure_sealevel;temperature;humidity
49216;BME280;45943;53.148;8.204;2024-02-26T00:00:04;100387.53;;;8.91;100.00
49216;BME280;45943;53.148;8.204;2024-02-26T00:02:37;100391.28;;;8.88;100.00
49216;BME280;45943;53.148;8.204;2024-02-26T00:05:07;100395.06;;;8.86;100.00
49216;BME280;45943;53.148;8.204;2024-02-26T00:07:34;100395.19;;;8.62;100.00
49216;BME280;45943;53.148;8.204;2024-02-26T00:10:00;100394.84;;;8.55;100.00
49216;BME280;45943;53.148;8.204;2024-02-26T00:12:26;100391.22;;;8.56;100.00
49216;BME280;45943;53.148;8.204;2024-02-26T00:14:52;100390.22;;;8.57;100.00
49216;BME280;45943;53.148;8.204;2024-02-26T00:17:19;100382.56;;;8.53;100.00
49216;BME280;45943;53.148;8.204;2024-02-26T00:19:45;100388.03;;;8.51;100.00
49216;BME280;45943;53.148;8.204;2024-02-26T00:22:11;100390.84;;;8.50;100.00
49216;BME280;45943;53.148;8.204;2024-02-26T00:24:37;100383.66;;;8.50;100.00
49216;BME280;45943;53.148;8.204;2024-02-26T00:27:03;100388.03;;;8.51;100.00
49216;BME280;45943;53.148;8.204;2024-02-26T00:29:29;100389.25;;;8.47;100.00
49216;BME280;45943;53.148;8.204;2024-02-26T00:31:55;100385.50;;;8.39;100.00
49216;BME280;45943;53.148;8.204;2024-02-26T00:34:21;100391.06;;;8.36;100.00
49216;BME280;45943;53.148;8.204;2024-02-26T00:36:47;100387.75;;;8.32;100.00
49216;BME280;45943;53.148;8.204;2024-02-26T00:39:13;100390.09;;;8.37;100.00
49216;BME280;45943;53.148;8.204;2024-02-26T00:41:42;100388.75;;;8.42;100.00
49216;BME280;45943;53.148;8.204;2024-02-26T00:44:08;100387.06;;;8.41;100.00
49216;BME280;45943;53.148;8.204;2024-02-26T00:46:34;100389.00;;;8.39;100.00
49216;BME280;45943;53.148;8.204;2024-02-26T00:49:00;100385.63;;;8.37;100.00
49216;BME280;45943;53.148;8.204;2024-02-26T00:51:27;100386.59;;;8.36;100.00
49216;BME280;45943;53.148;8.204;2024-02-26T00:53:53;100388.38;;;8.36;100.00
49216;BME280;45943;53.148;8.204;2024-02-26T00:56:21;100375.22;;;8.32;100.00
49216;BME280;45943;53.148;8.204;2024-02-26T00:58:47;100377.19;;;8.30;100.00
49216;BME280;45943;53.148;8.204;2024-02-26T01:01:13;100380.72;;;8.31;100.00
49216;BME280;45943;53.148;8.204;2024-02-26T01:03:39;100382.28;;;8.33;100.00
49216;BME280;45943;53.148;8.204;2024-02-26T01:06:05;100384.00;;;8.34;100.00
49216;BME280;45943;53.148;8.204;2024-02-26T01:08:31;100385.78;;;8.34;100.00
49216;BME280;45943;53.148;8.204;2024-02-26T01:10:57;100391.66;;;8.28;100.00
49216;BME280;45943;53.148;8.204;2024-02-26T01:13:23;100396.25;;;8.26;100.00
49216;BME280;45943;53.148;8.204;2024-02-26T01:15:49;100395.38;;;8.25;100.00
49216;BME280;45943;53.148;8.204;2024-02-26T01:18:15;100398.94;;;8.26;100.00
49216;BME280;45943;53.148;8.204;2024-02-26T01:20:41;100395.28;;;8.27;100.00
49216;BME280;45943;53.148;8.204;2024-02-26T01:23:07;100401.59;;;8.26;100.00
49216;BME280;45943;53.148;8.204;2024-02-26T01:25:33;100400.00;;;8.23;100.00
49216;BME280;45943;53.148;8.204;2024-02-26T01:27:59;100398.56;;;8.19;100.00
49216;BME280;45943;53.148;8.204;2024-02-26T01:30:25;100394.19;;;8.18;100.00
49216;BME280;45943;53.148;8.204;2024-02-26T01:32:51;100390.66;;;8.18;100.00
49216;BME280;45943;53.148;8.204;2024-02-26T01:35:17;100391.72;;;8.15;100.00
49216;BME280;45943;53.148;8.204;2024-02-26T01:37:43;100390.28;;;8.11;100.00
49216;BME280;45943;53.148;8.204;2024-02-26T01:40:09;100390.41;;;8.10;100.00
49216;BME280;45943;53.148;8.204;2024-02-26T01:42:38;100383.34;;;8.09;100.00
49216;BME280;45943;53.148;8.204;2024-02-26T01:45:04;100382.38;;;8.10;100.00
49216;BME280;45943;53.148;8.204;2024-02-26T01:47:32;100382.38;;;8.10;100.00
49216;BME280;45943;53.148;8.204;2024-02-26T01:49:59;100385.06;;;8.10;100.00
49216;BME280;45943;53.148;8.204;2024-02-26T01:52:25;100383.34;;;8.09;100.00
49216;BME280;45943;53.148;8.204;2024-02-26T01:54:51;100390.53;;;8.08;100.00
49216;BME280;45943;53.148;8.204;2024-02-26T01:57:17;100391.59;;;8.05;100.00
49216;BME280;45943;53.148;8.204;2024-02-26T01:59:44;100385.31;;;8.07;100.00
49216;BME280;45943;53.148;8.204;2024-02-26T02:02:10;100394.16;;;8.07;100.00
49216;BME280;45943;53.148;8.204;2024-02-26T02:04:38;100393.41;;;8.05;100.00
49216;BME280;45943;53.148;8.204;2024-02-26T02:07:05;100391.34;;;7.97;100.00
49216;BME280;45943;53.148;8.204;2024-02-26T02:09:31;100396.06;;;7.94;100.00
49216;BME280;45943;53.148;8.204;2024-02-26T02:11:58;100403.84;;;7.97;100.00
49216;BME280;45943;53.148;8.204;2024-02-26T02:14:24;100395.22;;;7.93;100.00
49216;BME280;45943;53.148;8.204;2024-02-26T02:16:51;100397.66;;;7.96;100.00
49216;BME280;45943;53.148;8.204;2024-02-26T02:19:17;100394.88;;;7.98;100.00
49216;BME280;45943;53.148;8.204;2024-02-26T02:21:43;100390.38;;;7.98;100.00
49216;BME280;45943;53.148;8.204;2024-02-26T02:24:09;100398.16;;;8.01;100.00
49216;BME280;45943;53.148;8.204;2024-02-26T02:26:35;100398.75;;;8.05;100.00
49216;BME280;45943;53.148;8.204;2024-02-26T02:29:01;100402.19;;;8.07;100.00
49216;BME280;45943;53.148;8.204;2024-02-26T02:31:29;100402.50;;;8.02;100.00
49216;BME280;45943;53.148;8.204;2024-02-26T02:33:55;100397.53;;;7.98;100.00
49216;BME280;45943;53.148;8.204;2024-02-26T02:36:22;100402.13;;;7.96;100.00
49216;BME280;45943;53.148;8.204;2024-02-26T02:38:48;100406.53;;;7.97;100.00
49216;BME280;45943;53.148;8.204;2024-02-26T02:41:17;100410.25;;;7.94;100.00
49216;BME280;45943;53.148;8.204;2024-02-26T02:43:44;100408.94;;;7.89;100.00
49216;BME280;45943;53.148;8.204;2024-02-26T02:46:10;100419.59;;;7.89;100.00
49216;BME280;45943;53.148;8.204;2024-02-26T02:48:41;100420.66;;;7.86;100.00
49216;BME280;45943;53.148;8.204;2024-02-26T02:51:07;100416.66;;;7.81;100.00
49216;BME280;45943;53.148;8.204;2024-02-26T02:53:34;100425.75;;;7.78;100.00
49216;BME280;45943;53.148;8.204;2024-02-26T02:56:00;100427.69;;;7.76;100.00
49216;BME280;45943;53.148;8.204;2024-02-26T02:58:26;100419.44;;;7.79;100.00
49216;BME280;45943;53.148;8.204;2024-02-26T03:00:52;100422.97;;;7.80;100.00
49216;BME280;45943;53.148;8.204;2024-02-26T03:03:20;100425.66;;;7.80;100.00
49216;BME280;45943;53.148;8.204;2024-02-26T03:05:46;100427.31;;;7.69;100.00
49216;BME280;45943;53.148;8.204;2024-02-26T03:08:12;100421.56;;;7.63;100.00
49216;BME280;45943;53.148;8.204;2024-02-26T03:10:38;100422.53;;;7.62;100.00
49216;BME280;45943;53.148;8.204;2024-02-26T03:13:04;100425.09;;;7.63;100.00
49216;BME280;45943;53.148;8.204;2024-02-26T03:15:30;100430.91;;;7.57;100.00
49216;BME280;45943;53.148;8.204;2024-02-26T03:17:56;100434.50;;;7.56;100.00
49216;BME280;45943;53.148;8.204;2024-02-26T03:20:22;100436.31;;;7.56;100.00
49216;BME280;45943;53.148;8.204;2024-02-26T03:22:48;100436.25;;;7.57;100.00
49216;BME280;45943;53.148;8.204;2024-02-26T03:25:14;100457.59;;;7.57;100.00
49216;BME280;45943;53.148;8.204;2024-02-26T03:27:40;100463.13;;;7.54;100.00
49216;BME280;45943;53.148;8.204;2024-02-26T03:30:06;100467.50;;;7.55;100.00
49216;BME280;45943;53.148;8.204;2024-02-26T03:32:33;100476.34;;;7.56;100.00
49216;BME280;45943;53.148;8.204;2024-02-26T03:34:59;100471.25;;;7.53;100.00
49216;BME280;45943;53.148;8.204;2024-02-26T03:37:25;100483.75;;;7.52;100.00
49216;BME280;45943;53.148;8.204;2024-02-26T03:39:51;100481.19;;;7.51;100.00
49216;BME280;45943;53.148;8.204;2024-02-26T03:42:17;100486.78;;;7.47;100.00
49216;BME280;45943;53.148;8.204;2024-02-26T03:44:43;100492.19;;;7.46;100.00
49216;BME280;45943;53.148;8.204;2024-02-26T03:47:09;100481.63;;;7.44;100.00
49216;BME280;45943;53.148;8.204;2024-02-26T03:49:35;100484.31;;;7.44;100.00
49216;BME280;45943;53.148;8.204;2024-02-26T03:52:01;100486.97;;;7.44;100.00
49216;BME280;45943;53.148;8.204;2024-02-26T03:54:27;100486.25;;;7.42;100.00
49216;BME280;45943;53.148;8.204;2024-02-26T03:56:53;100488.78;;;7.44;100.00
49216;BME280;45943;53.148;8.204;2024-02-26T03:59:19;100488.56;;;7.47;100.00
49216;BME280;45943;53.148;8.204;2024-02-26T04:01:46;100488.47;;;7.48;100.00
49216;BME280;45943;53.148;8.204;2024-02-26T04:04:15;100495.91;;;7.56;100.00
49216;BME280;45943;53.148;8.204;2024-02-26T04:06:44;100497.28;;;7.62;100.00
49216;BME280;45943;53.148;8.204;2024-02-26T04:09:13;100497.28;;;7.62;100.00
49216;BME280;45943;53.148;8.204;2024-02-26T04:11:39;100504.19;;;7.64;100.00
49216;BME280;45943;53.148;8.204;2024-02-26T04:14:05;100505.03;;;7.65;100.00
49216;BME280;45943;53.148;8.204;2024-02-26T04:16:34;100501.31;;;7.67;100.00
49216;BME280;45943;53.148;8.204;2024-02-26T04:19:03;100498.53;;;7.69;100.00
49216;BME280;45943;53.148;8.204;2024-02-26T04:21:29;100509.31;;;7.67;100.00
49216;BME280;45943;53.148;8.204;2024-02-26T04:23:55;100510.63;;;7.62;100.00
49216;BME280;45943;53.148;8.204;2024-02-26T04:26:21;100513.28;;;7.62;100.00
49216;BME280;45943;53.148;8.204;2024-02-26T04:28:47;100517.78;;;7.61;100.00
49216;BME280;45943;53.148;8.204;2024-02-26T04:31:13;100521.41;;;7.60;100.00
49216;BME280;45943;53.148;8.204;2024-02-26T04:33:39;100525.56;;;7.64;100.00
49216;BME280;45943;53.148;8.204;2024-02-26T04:36:12;100526.06;;;7.69;100.00
49216;BME280;45943;53.148;8.204;2024-02-26T04:38:40;100529.81;;;7.67;100.00
49216;BME280;45943;53.148;8.204;2024-02-26T04:41:06;100524.38;;;7.68;100.00
49216;BME280;45943;53.148;8.204;2024-02-26T04:43:32;100525.84;;;7.72;100.00
49216;BME280;45943;53.148;8.204;2024-02-26T04:45:58;100527.22;;;7.78;100.00
49216;BME280;45943;53.148;8.204;2024-02-26T04:48:24;100534.25;;;7.79;100.00
49216;BME280;45943;53.148;8.204;2024-02-26T04:50:49;100539.81;;;7.76;100.00
49216;BME280;45943;53.148;8.204;2024-02-26T04:53:15;100540.78;;;7.75;100.00
49216;BME280;45943;53.148;8.204;2024-02-26T04:55:41;100537.91;;;7.78;100.00
49216;BME280;45943;53.148;8.204;2024-02-26T04:58:07;100545.91;;;7.78;100.00
49216;BME280;45943;53.148;8.204;2024-02-26T05:00:33;100540.03;;;7.73;100.00
49216;BME280;45943;53.148;8.204;2024-02-26T05:02:59;100543.56;;;7.73;100.00
49216;BME280;45943;53.148;8.204;2024-02-26T05:05:25;100542.59;;;7.74;100.00
49216;BME280;45943;53.148;8.204;2024-02-26T05:07:51;100552.53;;;7.72;100.00
49216;BME280;45943;53.148;8.204;2024-02-26T05:10:17;100560.91;;;7.68;100.00
49216;BME280;45943;53.148;8.204;2024-02-26T05:12:43;100568.38;;;7.63;100.00
49216;BME280;45943;53.148;8.204;2024-02-26T05:15:09;100573.59;;;7.64;100.00
49216;BME280;45943;53.148;8.204;2024-02-26T05:17:36;100573.59;;;7.64;100.00
49216;BME280;45943;53.148;8.204;2024-02-26T05:20:02;100571.03;;;7.63;100.00
49216;BME280;45943;53.148;8.204;2024-02-26T05:22:28;100574.44;;;7.65;100.00
49216;BME280;45943;53.148;8.204;2024-02-26T05:24:54;100568.94;;;7.55;100.00
49216;BME280;45943;53.148;8.204;2024-02-26T05:27:20;100572.78;;;7.51;100.00
49216;BME280;45943;53.148;8.204;2024-02-26T05:29:46;100578.00;;;7.53;100.00
49216;BME280;45943;53.148;8.204;2024-02-26T05:32:12;100577.16;;;7.52;100.00
49216;BME280;45943;53.148;8.204;2024-02-26T05:34:38;100581.75;;;7.50;100.00
49216;BME280;45943;53.148;8.204;2024-02-26T05:37:04;100589.69;;;7.39;100.00
49216;BME280;45943;53.148;8.204;2024-02-26T05:39:30;100586.47;;;7.34;100.00
49216;BME280;45943;53.148;8.204;2024-02-26T05:41:56;100589.59;;;7.28;100.00
49216;BME280;45943;53.148;8.204;2024-02-26T05:44:22;100591.38;;;7.27;100.00
49216;BME280;45943;53.148;8.204;2024-02-26T05:46:48;100595.69;;;7.30;100.00
49216;BME280;45943;53.148;8.204;2024-02-26T05:49:14;100592.78;;;7.33;100.00
49216;BME280;45943;53.148;8.204;2024-02-26T05:51:40;100594.28;;;7.24;100.00
49216;BME280;45943;53.148;8.204;2024-02-26T05:54:06;100599.41;;;7.14;100.00
49216;BME280;45943;53.148;8.204;2024-02-26T05:56:33;100590.13;;;7.20;100.00
49216;BME280;45943;53.148;8.204;2024-02-26T05:58:59;100588.72;;;7.27;100.00
49216;BME280;45943;53.148;8.204;2024-02-26T06:01:25;100595.69;;;7.30;100.00
49216;BME280;45943;53.148;8.204;2024-02-26T06:03:51;100599.41;;;7.27;100.00
49216;BME280;45943;53.148;8.204;2024-02-26T06:06:17;100598.34;;;7.17;100.00
49216;BME280;45943;53.148;8.204;2024-02-26T06:08:43;100599.94;;;7.07;100.00
49216;BME280;45943;53.148;8.204;2024-02-26T06:11:09;100597.28;;;7.07;100.00
49216;BME280;45943;53.148;8.204;2024-02-26T06:13:35;100602.84;;;7.04;100.00
49216;BME280;45943;53.148;8.204;2024-02-26T06:16:01;100614.03;;;7.09;100.00
49216;BME280;45943;53.148;8.204;2024-02-26T06:18:28;100623.41;;;7.14;100.00
49216;BME280;45943;53.148;8.204;2024-02-26T06:20:54;100618.31;;;7.11;100.00
49216;BME280;45943;53.148;8.204;2024-02-26T06:23:19;100623.53;;;7.13;100.00
49216;BME280;45943;53.148;8.204;2024-02-26T06:25:45;100633.88;;;7.17;100.00
49216;BME280;45943;53.148;8.204;2024-02-26T06:28:13;100630.03;;;7.22;100.00
49216;BME280;45943;53.148;8.204;2024-02-26T06:30:39;100629.06;;;7.23;100.00
49216;BME280;45943;53.148;8.204;2024-02-26T06:33:05;100640.50;;;7.25;100.00
49216;BME280;45943;53.148;8.204;2024-02-26T06:35:31;100639.53;;;7.26;100.00
49216;BME280;45943;53.148;8.204;2024-02-26T06:37:57;100642.19;;;7.26;100.00
49216;BME280;45943;53.148;8.204;2024-02-26T06:40:23;100643.03;;;7.26;100.00
49216;BME280;45943;53.148;8.204;2024-02-26T06:42:50;100640.59;;;7.23;100.00
49216;BME280;45943;53.148;8.204;2024-02-26T06:45:17;100640.28;;;7.28;100.00
49216;BME280;45943;53.148;8.204;2024-02-26T06:47:45;100645.41;;;7.31;100.00
49216;BME280;45943;53.148;8.204;2024-02-26T06:50:14;100645.41;;;7.31;100.00
49216;BME280;45943;53.148;8.204;2024-02-26T06:52:40;100651.06;;;7.39;100.00
49216;BME280;45943;53.148;8.204;2024-02-26T06:55:06;100642.22;;;7.38;100.00
49216;BME280;45943;53.148;8.204;2024-02-26T06:57:34;100654.47;;;7.41;100.00
49216;BME280;45943;53.148;8.204;2024-02-26T07:00:00;100656.47;;;7.37;100.00
49216;BME280;45943;53.148;8.204;2024-02-26T07:02:26;100665.56;;;7.35;100.00
49216;BME280;45943;53.148;8.204;2024-02-26T07:04:52;100664.81;;;7.45;100.00
49216;BME280;45943;53.148;8.204;2024-02-26T07:07:17;100666.09;;;7.53;100.00
49216;BME280;45943;53.148;8.204;2024-02-26T07:09:44;100663.75;;;7.48;100.00
49216;BME280;45943;53.148;8.204;2024-02-26T07:12:10;100665.56;;;7.47;100.00
49216;BME280;45943;53.148;8.204;2024-02-26T07:14:36;100671.00;;;7.46;100.00
49216;BME280;45943;53.148;8.204;2024-02-26T07:17:03;100679.53;;;7.51;100.00
49216;BME280;45943;53.148;8.204;2024-02-26T07:19:29;100675.50;;;7.58;100.00
49216;BME280;45943;53.148;8.204;2024-02-26T07:21:55;100685.09;;;7.61;100.00
49216;BME280;45943;53.148;8.204;2024-02-26T07:24:21;100692.47;;;7.57;100.00
49216;BME280;45943;53.148;8.204;2024-02-26T07:26:47;100689.88;;;7.56;100.00
49216;BME280;45943;53.148;8.204;2024-02-26T07:29:13;100699.72;;;7.55;100.00
49216;BME280;45943;53.148;8.204;2024-02-26T07:31:39;100702.06;;;7.60;100.00
49216;BME280;45943;53.148;8.204;2024-02-26T07:34:05;100707.94;;;7.65;100.00
49216;BME280;45943;53.148;8.204;2024-02-26T07:36:31;100703.44;;;7.65;100.00
49216;BME280;45943;53.148;8.204;2024-02-26T07:38:58;100711.34;;;7.67;100.00
49216;BME280;45943;53.148;8.204;2024-02-26T07:41:24;100713.06;;;7.68;100.00
49216;BME280;45943;53.148;8.204;2024-02-26T07:43:50;100706.66;;;7.70;100.00
49216;BME280;45943;53.148;8.204;2024-02-26T07:46:16;100710.69;;;7.76;100.00
49216;BME280;45943;53.148;8.204;2024-02-26T07:48:43;100714.22;;;7.76;100.00
49216;BME280;45943;53.148;8.204;2024-02-26T07:51:11;100712.09;;;7.82;100.00
49216;BME280;45943;53.148;8.204;2024-02-26T07:53:38;100712.09;;;7.82;100.00
49216;BME280;45943;53.148;8.204;2024-02-26T07:56:04;100712.50;;;7.88;100.00
49216;BME280;45943;53.148;8.204;2024-02-26T07:58:31;100711.00;;;7.84;100.00
49216;BME280;45943;53.148;8.204;2024-02-26T08:00:58;100713.28;;;7.78;100.00
49216;BME280;45943;53.148;8.204;2024-02-26T08:03:24;100710.19;;;7.71;100.00
49216;BME280;45943;53.148;8.204;2024-02-26T08:05:51;100701.81;;;7.75;100.00
49216;BME280;45943;53.148;8.204;2024-02-26T08:08:17;100698.97;;;7.79;100.00
49216;BME280;45943;53.148;8.204;2024-02-26T08:10:43;100709.56;;;7.67;100.00
49216;BME280;45943;53.148;8.204;2024-02-26T08:13:09;100718.81;;;7.74;100.00
49216;BME280;45943;53.148;8.204;2024-02-26T08:15:35;100715.28;;;7.74;100.00
49216;BME280;45943;53.148;8.204;2024-02-26T08:18:04;100714.56;;;7.72;100.00
49216;BME280;45943;53.148;8.204;2024-02-26T08:20:31;100718.94;;;7.73;100.00
49216;BME280;45943;53.148;8.204;2024-02-26T08:22:57;100718.31;;;7.69;100.00
49216;BME280;45943;53.148;8.204;2024-02-26T08:25:23;100728.53;;;7.63;100.00
49216;BME280;45943;53.148;8.204;2024-02-26T08:27:50;100732.28;;;7.60;100.00
49216;BME280;45943;53.148;8.204;2024-02-26T08:30:16;100742.75;;;7.63;100.00
49216;BME280;45943;53.148;8.204;2024-02-26T08:32:43;100743.28;;;7.68;100.00
49216;BME280;45943;53.148;8.204;2024-02-26T08:35:10;100746.94;;;7.67;100.00
49216;BME280;45943;53.148;8.204;2024-02-26T08:37:36;100742.44;;;7.68;100.00
49216;BME280;45943;53.148;8.204;2024-02-26T08:40:02;100748.53;;;7.70;100.00
49216;BME280;45943;53.148;8.204;2024-02-26T08:42:29;100758.56;;;7.79;100.00
49216;BME280;45943;53.148;8.204;2024-02-26T08:44:55;100759.63;;;7.89;100.00
49216;BME280;45943;53.148;8.204;2024-02-26T08:47:21;100760.91;;;7.96;100.00
49216;BME280;45943;53.148;8.204;2024-02-26T08:49:47;100757.47;;;7.94;100.00
49216;BME280;45943;53.148;8.204;2024-02-26T08:52:13;100759.81;;;7.99;100.00
49216;BME280;45943;53.148;8.204;2024-02-26T08:54:40;100761.19;;;8.04;100.00
49216;BME280;45943;53.148;8.204;2024-02-26T08:57:06;100759.34;;;8.05;100.00
49216;BME280;45943;53.148;8.204;2024-02-26T08:59:32;100770.28;;;8.02;100.00
49216;BME280;45943;53.148;8.204;2024-02-26T09:01:58;100763.66;;;8.08;100.00
49216;BME280;45943;53.148;8.204;2024-02-26T09:04:24;100771.56;;;8.09;100.00
49216;BME280;45943;53.148;8.204;2024-02-26T09:06:50;100768.88;;;8.09;100.00
49216;BME280;45943;53.148;8.204;2024-02-26T09:09:16;100773.25;;;8.10;100.00
49216;BME280;45943;53.148;8.204;2024-02-26T09:11:42;100775.31;;;8.07;100.00
49216;BME280;45943;53.148;8.204;2024-02-26T09:14:08;100774.13;;;8.11;100.00
49216;BME280;45943;53.148;8.204;2024-02-26T09:16:34;100771.31;;;8.12;100.00
49216;BME280;45943;53.148;8.204;2024-02-26T09:19:00;100774.75;;;8.14;100.00
49216;BME280;45943;53.148;8.204;2024-02-26T09:21:28;100775.69;;;8.13;100.00
49216;BME280;45943;53.148;8.204;2024-02-26T09:23:54;100778.81;;;8.20;100.00
49216;BME280;45943;53.148;8.204;2024-02-26T09:26:20;100781.97;;;8.25;100.00
49216;BME280;45943;53.148;8.204;2024-02-26T09:28:46;100787.44;;;8.23;100.00
49216;BME280;45943;53.148;8.204;2024-02-26T09:31:12;100793.78;;;8.10;100.00
49216;BME280;45943;53.148;8.204;2024-02-26T09:33:41;100795.47;;;8.23;100.00
49216;BME280;45943;53.148;8.204;2024-02-26T09:36:08;100802.31;;;8.15;100.00
49216;BME280;45943;53.148;8.204;2024-02-26T09:38:35;100804.44;;;8.22;100.00
49216;BME280;45943;53.148;8.204;2024-02-26T09:41:06;100808.69;;;8.25;100.00
49216;BME280;45943;53.148;8.204;2024-02-26T09:43:39;100804.00;;;8.41;100.00
49216;BME280;45943;53.148;8.204;2024-02-26T09:46:10;100802.25;;;8.53;100.00
49216;BME280;45943;53.148;8.204;2024-02-26T09:48:37;100807.06;;;8.60;100.00
49216;BME280;45943;53.148;8.204;2024-02-26T09:51:03;100811.56;;;8.60;100.00
49216;BME280;45943;53.148;8.204;2024-02-26T09:53:30;100808.22;;;8.69;100.00
49216;BME280;45943;53.148;8.204;2024-02-26T09:55:57;100815.50;;;8.67;100.00
49216;BME280;45943;53.148;8.204;2024-02-26T09:58:24;100816.78;;;8.61;100.00
49216;BME280;45943;53.148;8.204;2024-02-26T10:00:53;100824.94;;;8.60;100.00
49216;BME280;45943;53.148;8.204;2024-02-26T10:03:28;100827.06;;;8.55;100.00
49216;BME280;45943;53.148;8.204;2024-02-26T10:06:00;100831.66;;;8.66;100.00
49216;BME280;45943;53.148;8.204;2024-02-26T10:08:28;100833.09;;;8.82;100.00
49216;BME280;45943;53.148;8.204;2024-02-26T10:10:55;100833.72;;;8.86;100.00
49216;BME280;45943;53.148;8.204;2024-02-26T10:13:21;100836.28;;;8.87;100.00
49216;BME280;45943;53.148;8.204;2024-02-26T10:15:48;100845.22;;;8.99;100.00
49216;BME280;45943;53.148;8.204;2024-02-26T10:18:15;100839.25;;;8.96;100.00
49216;BME280;45943;53.148;8.204;2024-02-26T10:20:41;100839.03;;;8.99;100.00
49216;BME280;45943;53.148;8.204;2024-02-26T10:23:07;100846.53;;;8.94;100.00
49216;BME280;45943;53.148;8.204;2024-02-26T10:25:33;100845.78;;;8.91;100.00
49216;BME280;45943;53.148;8.204;2024-02-26T10:27:59;100842.13;;;8.93;100.00
49216;BME280;45943;53.148;8.204;2024-02-26T10:30:29;100852.63;;;8.96;100.00
49216;BME280;45943;53.148;8.204;2024-02-26T10:32:56;100849.72;;;8.99;100.00
49216;BME280;45943;53.148;8.204;2024-02-26T10:35:23;100853.25;;;8.99;100.00
49216;BME280;45943;53.148;8.204;2024-02-26T10:37:49;100856.41;;;9.04;100.00
49216;BME280;45943;53.148;8.204;2024-02-26T10:40:16;100862.75;;;9.03;100.00
49216;BME280;45943;53.148;8.204;2024-02-26T10:42:42;100861.69;;;9.06;100.00
49216;BME280;45943;53.148;8.204;2024-02-26T10:45:09;100862.06;;;9.12;100.00
49216;BME280;45943;53.148;8.204;2024-02-26T10:47:36;100861.88;;;9.15;100.00
49216;BME280;45943;53.148;8.204;2024-02-26T10:50:03;100868.28;;;9.13;100.00
49216;BME280;45943;53.148;8.204;2024-02-26T10:52:33;100864.31;;;9.18;100.00
49216;BME280;45943;53.148;8.204;2024-02-26T10:55:01;100867.28;;;9.27;100.00
49216;BME280;45943;53.148;8.204;2024-02-26T10:57:35;100867.44;;;9.36;100.00
49216;BME280;45943;53.148;8.204;2024-02-26T11:00:05;100868.16;;;9.38;100.00
49216;BME280;45943;53.148;8.204;2024-02-26T11:02:33;100876.19;;;9.38;100.00
49216;BME280;45943;53.148;8.204;2024-02-26T11:05:04;100874.94;;;9.31;100.00
49216;BME280;45943;53.148;8.204;2024-02-26T11:07:32;100877.50;;;9.33;100.00
49216;BME280;45943;53.148;8.204;2024-02-26T11:09:59;100877.50;;;9.33;100.00
49216;BME280;45943;53.148;8.204;2024-02-26T11:12:27;100884.72;;;9.43;100.00
49216;BME280;45943;53.148;8.204;2024-02-26T11:14:55;100880.38;;;9.54;100.00
49216;BME280;45943;53.148;8.204;2024-02-26T11:17:23;100889.28;;;9.54;100.00
49216;BME280;45943;53.148;8.204;2024-02-26T11:19:53;100887.41;;;9.43;100.00
49216;BME280;45943;53.148;8.204;2024-02-26T11:22:21;100885.25;;;9.48;100.00
49216;BME280;45943;53.148;8.204;2024-02-26T11:24:48;100884.41;;;9.48;100.00
49216;BME280;45943;53.148;8.204;2024-02-26T11:27:15;100889.75;;;9.48;100.00
49216;BME280;45943;53.148;8.204;2024-02-26T11:29:46;100887.47;;;9.55;100.00
49216;BME280;45943;53.148;8.204;2024-02-26T11:32:14;100896.84;;;9.60;100.00
49216;BME280;45943;53.148;8.204;2024-02-26T11:34:41;100891.25;;;9.63;100.00
49216;BME280;45943;53.148;8.204;2024-02-26T11:37:12;100895.53;;;9.66;100.00
49216;BME280;45943;53.148;8.204;2024-02-26T11:39:40;100893.00;;;9.64;100.00
49216;BME280;45943;53.148;8.204;2024-02-26T11:42:07;100894.69;;;9.65;100.00
49216;BME280;45943;53.148;8.204;2024-02-26T11:44:34;100904.59;;;9.76;100.00
49216;BME280;45943;53.148;8.204;2024-02-26T11:47:13;100900.81;;;9.78;100.00
49216;BME280;45943;53.148;8.204;2024-02-26T11:49:48;100916.63;;;9.82;100.00
49216;BME280;45943;53.148;8.204;2024-02-26T11:52:15;100902.06;;;9.86;100.00
49216;BME280;45943;53.148;8.204;2024-02-26T11:54:48;100911.56;;;9.90;100.00
49216;BME280;45943;53.148;8.204;2024-02-26T11:57:23;100897.06;;;9.92;100.00
49216;BME280;45943;53.148;8.204;2024-02-26T11:59:49;100898.41;;;9.87;100.00
49216;BME280;45943;53.148;8.204;2024-02-26T12:05:20;100901.22;;;9.85;100.00
49216;BME280;45943;53.148;8.204;2024-02-26T12:07:50;100909.25;;;9.85;100.00
49216;BME280;45943;53.148;8.204;2024-02-26T12:10:26;100914.50;;;9.98;100.00
49216;BME280;45943;53.148;8.204;2024-02-26T12:13:00;100912.81;;;10.08;100.00
49216;BME280;45943;53.148;8.204;2024-02-26T12:15:34;100917.81;;;10.13;100.00
49216;BME280;45943;53.148;8.204;2024-02-26T12:18:03;100913.34;;;10.13;100.00
49216;BME280;45943;53.148;8.204;2024-02-26T12:20:30;100918.63;;;10.26;100.00
49216;BME280;45943;53.148;8.204;2024-02-26T12:22:57;100919.50;;;10.38;100.00
49216;BME280;45943;53.148;8.204;2024-02-26T12:25:24;100924.13;;;10.47;100.00
49216;BME280;45943;53.148;8.204;2024-02-26T12:27:53;100921.06;;;10.51;100.00
49216;BME280;45943;53.148;8.204;2024-02-26T12:30:19;100920.59;;;10.69;100.00
49216;BME280;45943;53.148;8.204;2024-02-26T12:32:46;100921.56;;;10.79;100.00
49216;BME280;45943;53.148;8.204;2024-02-26T12:35:13;100921.81;;;10.87;100.00
49216;BME280;45943;53.148;8.204;2024-02-26T12:37:40;100924.88;;;10.94;100.00
49216;BME280;45943;53.148;8.204;2024-02-26T12:40:08;100923.28;;;11.02;100.00
49216;BME280;45943;53.148;8.204;2024-02-26T12:42:38;100921.56;;;11.01;100.00
49216;BME280;45943;53.148;8.204;2024-02-26T12:45:06;100923.84;;;11.17;100.00
49216;BME280;45943;53.148;8.204;2024-02-26T12:50:08;100924.09;;;11.14;100.00
49216;BME280;45943;53.148;8.204;2024-02-26T12:52:39;100932.59;;;11.19;100.00